Terminal Aerodrome Forecast
Issued by NWS

Home | Current Version | Previous Version | Text Only | Print | Product List | Glossary On
Versions: 1 2 3 4 5 6 7 8 9 10 11 12 13
000
FTUS45 KRIW 181100
TAFCOD
TAF
KCOD 181136Z 1812/1912 21007KT P6SM SKC
     FM181700 36017G25KT P6SM SCT050 BKN080
     FM182100 01015G23KT P6SM VCSH SCT030 OVC050
     FM190100 36014KT 4SM -RASN SCT012 OVC020
     FM190700 36009KT 6SM -SN BR SCT007 OVC015
      AMD LTD TO CLD VIS AND WIND=

USA.gov is the U.S. government's official web portal to all federal, state and local government web resources and services.